Time;durP1;ratioP1;P1;durP2;ratioP2;P2;SDS_P1;SDS_P2;PMS_P1;PMS_P2;Temp;Humidity;BMP_temperature;BMP_pressure;BME280_temperature;BME280_humidity;BME280_pressure;Samples;Min_cycle;Max_cycle;Signal;HPM_P1;HPM_P2
2022/05/11 00:00:05;;;;;;;5.80;3.40;;;;;;;;;;2074417;28;20189;-51
2022/05/11 00:01:12;;;;;;;3.70;3.35;;;;;;;;;;2075546;28;20819;-52
2022/05/11 00:02:13;;;;;;;3.90;3.45;;;;;;;;;;2074540;28;20195;-51
2022/05/11 00:03:13;;;;;;;4.07;3.30;;;;;;;;;;2074131;28;20179;-52
2022/05/11 00:04:13;;;;;;;3.75;3.45;;;;;;;;;;2073962;28;20602;-53
2022/05/11 00:05:14;;;;;;;5.32;4.10;;;;;;;;;;2083190;28;20720;-53
2022/05/11 00:06:14;;;;;;;4.85;4.05;;;;;;;;;;2089982;28;20168;-51
2022/05/11 00:07:14;;;;;;;6.00;3.17;;;;;;;;;;2091720;28;20643;-52
2022/05/11 00:08:14;;;;;;;3.85;3.45;;;;;;;;;;2085259;28;20211;-50
2022/05/11 00:09:16;;;;;;;5.65;3.60;;;;;;;;;;2074513;28;20173;-52
2022/05/11 00:10:16;;;;;;;4.50;3.65;;;;;;;;;;2074731;28;20711;-52
2022/05/11 00:11:17;;;;;;;4.13;3.38;;;;;;;;;;2073881;28;20200;-51
2022/05/11 00:12:17;;;;;;;4.80;3.60;;;;;;;;;;2074596;28;20184;-51
2022/05/11 00:13:17;;;;;;;4.22;3.20;;;;;;;;;;2082935;28;20160;-51
2022/05/11 00:14:17;;;;;;;4.38;3.47;;;;;;;;;;2082626;28;20221;-53
2022/05/11 00:15:19;;;;;;;3.25;3.05;;;;;;;;;;2083020;28;20230;-54
2022/05/11 00:16:19;;;;;;;4.47;3.65;;;;;;;;;;2082567;28;20660;-54
2022/05/11 00:17:20;;;;;;;3.90;3.25;;;;;;;;;;2083169;28;20200;-51
2022/05/11 00:18:20;;;;;;;5.20;3.60;;;;;;;;;;2083005;28;20219;-50
2022/05/11 00:19:21;;;;;;;8.75;3.85;;;;;;;;;;2074091;28;20597;-51
2022/05/11 00:20:23;;;;;;;3.75;3.47;;;;;;;;;;2074420;28;20188;-51
2022/05/11 00:21:23;;;;;;;4.05;3.13;;;;;;;;;;2082530;28;20313;-52
2022/05/11 00:22:23;;;;;;;3.85;3.53;;;;;;;;;;2083048;28;20291;-56
2022/05/11 00:23:24;;;;;;;3.60;3.30;;;;;;;;;;2084154;28;20168;-53
2022/05/11 00:24:26;;;;;;;4.10;3.78;;;;;;;;;;2073785;28;20186;-53
2022/05/11 00:25:27;;;;;;;3.45;3.22;;;;;;;;;;2074471;28;20169;-51
2022/05/11 00:26:27;;;;;;;4.57;3.45;;;;;;;;;;2082895;28;20224;-51
2022/05/11 00:27:28;;;;;;;3.78;3.47;;;;;;;;;;2082644;28;20195;-53
2022/05/11 00:28:28;;;;;;;3.08;2.83;;;;;;;;;;2082621;28;20517;-52
2022/05/11 00:29:30;;;;;;;6.03;3.40;;;;;;;;;;2082679;28;20188;-53
2022/05/11 00:30:31;;;;;;;3.75;3.33;;;;;;;;;;2082340;28;20186;-51
2022/05/11 00:31:31;;;;;;;3.63;3.08;;;;;;;;;;2082284;28;20214;-51
2022/05/11 00:32:32;;;;;;;5.40;3.22;;;;;;;;;;2082400;28;20175;-51
2022/05/11 00:33:32;;;;;;;3.60;3.15;;;;;;;;;;2082714;28;20160;-51
2022/05/11 00:34:32;;;;;;;3.65;3.38;;;;;;;;;;2081400;28;20173;-51
2022/05/11 00:35:34;;;;;;;5.47;3.60;;;;;;;;;;2074340;28;20642;-52
2022/05/11 00:36:35;;;;;;;4.43;3.53;;;;;;;;;;2065338;28;20277;-49
2022/05/11 00:37:35;;;;;;;4.50;3.55;;;;;;;;;;2073760;28;20166;-50
2022/05/11 00:38:35;;;;;;;3.63;3.30;;;;;;;;;;2082481;28;20168;-51
2022/05/11 00:39:36;;;;;;;4.95;3.60;;;;;;;;;;2082424;28;20219;-51
2022/05/11 00:40:44;;;;;;;3.90;3.55;;;;;;;;;;2082122;28;20191;-52
2022/05/11 00:41:44;;;;;;;6.57;3.72;;;;;;;;;;2082382;28;20188;-52
2022/05/11 00:42:45;;;;;;;5.10;3.75;;;;;;;;;;2082154;28;20544;-54
2022/05/11 00:43:52;;;;;;;4.57;4.03;;;;;;;;;;2081980;28;20169;-54
2022/05/11 00:44:54;;;;;;;7.85;4.22;;;;;;;;;;2082123;28;20180;-52
2022/05/11 00:46:01;;;;;;;5.93;3.65;;;;;;;;;;2082368;28;20176;-52
2022/05/11 00:47:04;;;;;;;4.03;3.58;;;;;;;;;;2082516;28;20165;-52
2022/05/11 00:49:33;;;;;;;4.38;4.00;;;;;;;;;;2065623;28;20202;-51
2022/05/11 00:49:40;;;;;;;4.28;3.42;;;;;;;;;;2071375;28;20537;-52
2022/05/11 00:50:40;;;;;;;6.05;3.75;;;;;;;;;;2081959;28;20163;-50
2022/05/11 00:51:45;;;;;;;4.35;3.88;;;;;;;;;;2082036;28;20188;-50
2022/05/11 00:52:50;;;;;;;3.72;3.45;;;;;;;;;;2065522;28;20174;-50
2022/05/11 00:53:53;;;;;;;4.47;3.78;;;;;;;;;;2071734;28;20552;-51
2022/05/11 00:54:57;;;;;;;3.60;3.40;;;;;;;;;;2081853;28;20168;-51
2022/05/11 00:55:59;;;;;;;5.70;4.22;;;;;;;;;;2082449;28;20184;-51
2022/05/11 00:57:02;;;;;;;4.95;3.97;;;;;;;;;;2073556;28;20176;-50
2022/05/11 00:58:11;;;;;;;4.05;3.47;;;;;;;;;;2074130;28;20172;-51
2022/05/11 00:59:15;;;;;;;3.70;3.40;;;;;;;;;;2065729;28;20646;-50
2022/05/11 01:00:17;;;;;;;3.50;3.00;;;;;;;;;;2074323;28;20172;-51
2022/05/11 01:01:18;;;;;;;3.45;2.70;;;;;;;;;;2081816;28;20241;-55
2022/05/11 01:02:20;;;;;;;6.97;3.67;;;;;;;;;;2073716;28;20231;-52
2022/05/11 01:03:29;;;;;;;3.60;3.30;;;;;;;;;;2074177;28;20264;-50
2022/05/11 01:04:30;;;;;;;3.22;2.97;;;;;;;;;;2082655;28;20177;-54
2022/05/11 01:05:30;;;;;;;3.42;3.13;;;;;;;;;;2083229;28;20168;-51
2022/05/11 01:06:31;;;;;;;3.75;3.45;;;;;;;;;;2091106;28;20588;-50
2022/05/11 01:07:31;;;;;;;2.97;2.75;;;;;;;;;;2080316;28;20185;-53
2022/05/11 01:08:32;;;;;;;3.25;2.92;;;;;;;;;;2077963;28;20173;-52
2022/05/11 01:09:32;;;;;;;3.72;3.40;;;;;;;;;;2081441;28;20172;-54
2022/05/11 01:10:32;;;;;;;3.25;3.03;;;;;;;;;;2073895;28;20683;-53
2022/05/11 01:11:36;;;;;;;4.03;3.65;;;;;;;;;;2082557;28;20604;-53
2022/05/11 01:12:45;;;;;;;3.03;2.83;;;;;;;;;;2082283;28;20207;-52
2022/05/11 01:13:46;;;;;;;3.47;2.80;;;;;;;;;;2082499;28;20243;-55
2022/05/11 01:14:50;;;;;;;3.38;3.13;;;;;;;;;;2082240;28;20177;-52
2022/05/11 01:15:52;;;;;;;5.05;2.90;;;;;;;;;;2081972;28;20172;-51
2022/05/11 01:16:53;;;;;;;3.17;2.88;;;;;;;;;;2082749;28;20179;-50
2022/05/11 01:17:55;;;;;;;4.47;2.90;;;;;;;;;;2081817;28;20255;-51
2022/05/11 01:18:56;;;;;;;2.97;2.78;;;;;;;;;;2073580;28;20180;-53
2022/05/11 01:19:56;;;;;;;4.45;3.00;;;;;;;;;;2071945;28;20187;-52
2022/05/11 01:20:56;;;;;;;3.33;2.88;;;;;;;;;;2082658;28;20176;-50
2022/05/11 01:22:02;;;;;;;3.10;2.90;;;;;;;;;;2082514;28;20187;-52
2022/05/11 01:23:02;;;;;;;3.17;2.97;;;;;;;;;;2082502;28;20163;-53
2022/05/11 01:24:06;;;;;;;2.85;2.72;;;;;;;;;;2072868;28;20281;-51
2022/05/11 01:25:08;;;;;;;4.57;3.13;;;;;;;;;;2073824;28;20658;-50
2022/05/11 01:26:09;;;;;;;3.30;2.75;;;;;;;;;;2081683;28;20187;-50
2022/05/11 01:27:21;;;;;;;3.95;3.00;;;;;;;;;;2082087;28;20672;-54
2022/05/11 01:28:22;;;;;;;3.53;3.22;;;;;;;;;;2081815;28;20607;-55
2022/05/11 01:29:22;;;;;;;3.88;3.13;;;;;;;;;;2081987;28;20227;-51
2022/05/11 01:30:23;;;;;;;5.47;3.20;;;;;;;;;;2081848;28;20690;-52
2022/05/11 01:31:23;;;;;;;5.72;2.75;;;;;;;;;;2073057;28;20235;-50
2022/05/11 01:32:24;;;;;;;3.72;2.80;;;;;;;;;;2073322;28;20165;-55
2022/05/11 01:33:25;;;;;;;3.03;2.83;;;;;;;;;;2073375;28;20199;-51
2022/05/11 01:34:25;;;;;;;5.80;2.70;;;;;;;;;;2072715;28;20171;-51
2022/05/11 01:35:45;;;;;;;2.58;2.47;;;;;;;;;;2081973;28;20605;-53
2022/05/11 01:36:47;;;;;;;2.97;2.65;;;;;;;;;;2081990;28;20168;-50
2022/05/11 01:38:06;;;;;;;3.47;2.60;;;;;;;;;;2082001;28;20168;-53
2022/05/11 01:39:07;;;;;;;2.70;2.50;;;;;;;;;;2077489;28;20227;-51
2022/05/11 01:40:08;;;;;;;3.17;2.67;;;;;;;;;;2082134;28;20172;-53
2022/05/11 01:41:09;;;;;;;2.65;2.45;;;;;;;;;;2077425;28;20164;-52
2022/05/11 01:42:09;;;;;;;3.70;2.75;;;;;;;;;;2081409;28;20172;-54
2022/05/11 01:43:29;;;;;;;3.33;2.85;;;;;;;;;;2081956;28;20632;-51
2022/05/11 01:44:29;;;;;;;2.85;2.65;;;;;;;;;;2074712;28;20157;-50
2022/05/11 01:45:30;;;;;;;2.88;2.67;;;;;;;;;;2073453;28;20637;-50
2022/05/11 01:46:30;;;;;;;3.10;2.88;;;;;;;;;;2081856;28;20210;-51
2022/05/11 01:47:31;;;;;;;3.13;2.90;;;;;;;;;;2081832;28;20631;-51
2022/05/11 01:48:31;;;;;;;3.45;2.75;;;;;;;;;;2082135;28;20173;-51
2022/05/11 01:49:31;;;;;;;2.83;2.63;;;;;;;;;;2081460;28;20575;-54
2022/05/11 01:50:32;;;;;;;4.53;2.70;;;;;;;;;;2081669;28;20174;-51
2022/05/11 01:51:32;;;;;;;2.78;2.40;;;;;;;;;;2081666;28;20251;-53
2022/05/11 01:52:32;;;;;;;2.80;2.58;;;;;;;;;;2081692;28;20268;-50
2022/05/11 01:53:33;;;;;;;2.90;2.70;;;;;;;;;;2081674;28;20544;-51
2022/05/11 01:54:33;;;;;;;3.10;2.90;;;;;;;;;;2081707;28;20191;-50
2022/05/11 01:55:34;;;;;;;3.92;2.30;;;;;;;;;;2072296;28;20173;-53
2022/05/11 01:56:34;;;;;;;3.13;2.92;;;;;;;;;;2072721;28;20430;-54
2022/05/11 01:57:35;;;;;;;4.60;2.85;;;;;;;;;;2073131;28;20204;-55
2022/05/11 01:58:36;;;;;;;2.72;2.42;;;;;;;;;;2073103;28;20188;-53
2022/05/11 01:59:36;;;;;;;2.95;2.63;;;;;;;;;;2072704;28;20177;-54
2022/05/11 02:00:37;;;;;;;2.28;2.17;;;;;;;;;;2082163;28;20187;-55
2022/05/11 02:01:40;;;;;;;4.28;2.60;;;;;;;;;;2081738;28;20242;-51
2022/05/11 02:02:41;;;;;;;3.08;2.38;;;;;;;;;;2081050;28;20172;-53
2022/05/11 02:03:42;;;;;;;2.83;2.58;;;;;;;;;;2073704;28;20192;-53
2022/05/11 02:08:40;;;;;;;3.00;2.80;;;;;;;;;;2078599;28;20561;-52
2022/05/11 02:09:42;;;;;;;2.80;2.58;;;;;;;;;;2082123;28;20173;-52
2022/05/11 02:10:42;;;;;;;2.65;2.45;;;;;;;;;;2082024;28;20171;-50
2022/05/11 02:11:42;;;;;;;2.60;2.50;;;;;;;;;;2081767;28;20308;-51
2022/05/11 02:12:42;;;;;;;3.00;2.70;;;;;;;;;;2082092;28;20180;-52
2022/05/11 02:13:45;;;;;;;3.58;2.58;;;;;;;;;;2081580;28;20640;-51
2022/05/11 02:14:45;;;;;;;3.00;2.70;;;;;;;;;;2080190;28;20199;-51
2022/05/11 02:15:45;;;;;;;3.55;3.00;;;;;;;;;;2079928;28;20191;-53
2022/05/11 02:16:46;;;;;;;3.15;2.70;;;;;;;;;;2074452;28;20247;-49
2022/05/11 02:17:46;;;;;;;2.85;2.65;;;;;;;;;;2081470;28;20210;-51
2022/05/11 02:18:46;;;;;;;2.83;2.63;;;;;;;;;;2081998;28;20160;-50
2022/05/11 02:19:47;;;;;;;3.45;2.45;;;;;;;;;;2081557;28;20188;-51
2022/05/11 02:20:47;;;;;;;2.55;2.35;;;;;;;;;;2081875;28;20176;-54
2022/05/11 02:21:47;;;;;;;2.88;2.50;;;;;;;;;;2072954;28;20795;-50
2022/05/11 02:22:48;;;;;;;2.60;2.40;;;;;;;;;;2072839;28;20212;-54
2022/05/11 02:23:50;;;;;;;2.80;2.60;;;;;;;;;;2081693;28;20180;-52
2022/05/11 02:24:50;;;;;;;2.60;2.40;;;;;;;;;;2081337;28;20176;-51
2022/05/11 02:25:51;;;;;;;2.35;2.20;;;;;;;;;;2081855;28;20164;-53
2022/05/11 02:26:51;;;;;;;2.33;2.10;;;;;;;;;;2081283;28;20177;-50
2022/05/11 02:27:52;;;;;;;2.47;2.28;;;;;;;;;;2081099;28;20204;-52
2022/05/11 02:28:55;;;;;;;2.38;2.10;;;;;;;;;;2081473;28;20180;-52
2022/05/11 02:29:58;;;;;;;2.58;2.35;;;;;;;;;;2081695;28;20160;-51
2022/05/11 02:31:00;;;;;;;2.80;1.90;;;;;;;;;;2072736;28;20649;-51
2022/05/11 02:32:02;;;;;;;2.30;2.20;;;;;;;;;;2073175;28;20173;-54
2022/05/11 02:33:03;;;;;;;2.38;2.17;;;;;;;;;;2072738;28;20169;-54
2022/05/11 02:34:06;;;;;;;2.33;2.13;;;;;;;;;;2072323;28;20777;-54
2022/05/11 02:35:12;;;;;;;1.92;1.83;;;;;;;;;;2081372;28;20254;-52
2022/05/11 02:36:13;;;;;;;2.45;2.25;;;;;;;;;;2081436;28;20165;-49
2022/05/11 02:37:13;;;;;;;2.22;2.13;;;;;;;;;;2081525;28;20191;-53
2022/05/11 02:38:15;;;;;;;2.40;2.20;;;;;;;;;;2081847;28;20218;-54
2022/05/11 02:39:16;;;;;;;2.38;2.25;;;;;;;;;;2081258;28;20610;-53
2022/05/11 02:40:18;;;;;;;2.25;2.05;;;;;;;;;;2081410;28;20168;-52
2022/05/11 02:41:18;;;;;;;4.00;2.70;;;;;;;;;;2081477;28;20247;-53
2022/05/11 02:42:19;;;;;;;2.40;2.20;;;;;;;;;;2081730;28;20192;-53
2022/05/11 02:43:19;;;;;;;2.25;2.05;;;;;;;;;;2081559;28;20196;-52
2022/05/11 02:44:19;;;;;;;3.08;1.95;;;;;;;;;;2080982;28;20184;-53
2022/05/11 02:45:21;;;;;;;2.20;1.90;;;;;;;;;;2081119;28;20272;-54
2022/05/11 02:46:23;;;;;;;2.40;2.30;;;;;;;;;;2081434;28;20226;-53
2022/05/11 02:47:24;;;;;;;2.10;1.95;;;;;;;;;;2081376;28;20203;-53
2022/05/11 02:48:24;;;;;;;2.60;1.90;;;;;;;;;;2081747;28;20212;-55
2022/05/11 02:49:25;;;;;;;2.90;2.60;;;;;;;;;;2081612;28;20168;-50
2022/05/11 02:50:27;;;;;;;2.88;2.10;;;;;;;;;;2081163;28;20591;-52
2022/05/11 02:51:28;;;;;;;2.60;2.40;;;;;;;;;;2081538;28;20204;-54
2022/05/11 02:52:29;;;;;;;2.13;2.03;;;;;;;;;;2081607;28;20629;-52
2022/05/11 02:53:32;;;;;;;2.53;2.28;;;;;;;;;;2081456;28;20168;-54
2022/05/11 02:54:33;;;;;;;2.72;2.53;;;;;;;;;;2081530;28;20172;-53
2022/05/11 02:55:34;;;;;;;3.17;2.70;;;;;;;;;;2081490;28;20695;-55
2022/05/11 02:56:34;;;;;;;2.92;2.63;;;;;;;;;;2081958;28;20247;-55
2022/05/11 02:57:35;;;;;;;2.75;2.40;;;;;;;;;;2081490;28;20648;-51
2022/05/11 02:58:35;;;;;;;3.05;2.85;;;;;;;;;;2081469;28;20263;-56
2022/05/11 02:59:35;;;;;;;4.78;2.97;;;;;;;;;;2081744;28;20166;-51
2022/05/11 03:00:37;;;;;;;2.92;2.63;;;;;;;;;;2081457;28;20168;-51
2022/05/11 03:01:37;;;;;;;3.38;3.08;;;;;;;;;;2081204;28;20195;-52
2022/05/11 03:02:38;;;;;;;3.47;3.17;;;;;;;;;;2081621;28;20164;-52
2022/05/11 03:03:38;;;;;;;3.50;3.20;;;;;;;;;;2081015;28;20172;-52
2022/05/11 03:04:38;;;;;;;4.38;3.13;;;;;;;;;;2080648;28;20707;-54
2022/05/11 03:05:40;;;;;;;3.60;3.30;;;;;;;;;;2079927;28;20661;-55
2022/05/11 03:06:42;;;;;;;3.42;3.13;;;;;;;;;;2080232;28;20186;-53
2022/05/11 03:07:42;;;;;;;3.95;3.05;;;;;;;;;;2081636;28;20589;-55
2022/05/11 03:08:43;;;;;;;4.40;3.00;;;;;;;;;;2082874;28;20195;-52
2022/05/11 03:09:43;;;;;;;3.72;3.42;;;;;;;;;;2080272;28;20173;-56
2022/05/11 03:10:44;;;;;;;3.35;3.05;;;;;;;;;;2082669;28;20852;-53
2022/05/11 03:11:45;;;;;;;3.53;3.20;;;;;;;;;;2083118;28;20198;-54
2022/05/11 03:12:45;;;;;;;3.20;2.90;;;;;;;;;;2083068;28;20208;-57
2022/05/11 03:13:46;;;;;;;3.90;3.50;;;;;;;;;;2082751;28;20200;-51
2022/05/11 03:14:46;;;;;;;4.30;3.90;;;;;;;;;;2082763;28;20164;-52
2022/05/11 03:15:47;;;;;;;3.85;3.55;;;;;;;;;;2083431;28;20180;-52
2022/05/11 03:16:48;;;;;;;3.38;3.05;;;;;;;;;;2083371;28;20152;-54
2022/05/11 03:17:48;;;;;;;4.53;2.88;;;;;;;;;;2082750;28;20180;-54
2022/05/11 03:18:48;;;;;;;3.80;3.50;;;;;;;;;;2083995;28;20657;-55
2022/05/11 03:19:49;;;;;;;3.67;3.20;;;;;;;;;;2083333;28;20251;-57
2022/05/11 03:20:49;;;;;;;3.60;3.28;;;;;;;;;;2085985;28;20178;-54
2022/05/11 03:21:51;;;;;;;3.47;3.17;;;;;;;;;;2083874;28;20653;-51
2022/05/11 03:22:51;;;;;;;2.95;2.78;;;;;;;;;;2083126;28;20176;-54
2022/05/11 03:23:52;;;;;;;3.47;3.20;;;;;;;;;;2083903;28;20252;-54
2022/05/11 03:24:52;;;;;;;4.90;3.55;;;;;;;;;;2083670;28;20211;-55
2022/05/11 03:25:53;;;;;;;3.83;3.53;;;;;;;;;;2082977;28;20180;-52
2022/05/11 03:26:53;;;;;;;3.50;3.20;;;;;;;;;;2074088;28;20168;-51
2022/05/11 03:27:53;;;;;;;4.32;3.40;;;;;;;;;;2066022;28;20182;-52
2022/05/11 03:28:54;;;;;;;3.00;2.67;;;;;;;;;;2074451;28;20558;-56
2022/05/11 03:29:54;;;;;;;3.38;2.72;;;;;;;;;;2082898;28;20160;-53
2022/05/11 03:30:54;;;;;;;3.42;3.13;;;;;;;;;;2082546;28;20180;-52
2022/05/11 03:34:36;;;;;;;3.60;3.30;;;;;;;;;;2082755;28;20225;-53
2022/05/11 03:35:36;;;;;;;3.20;2.88;;;;;;;;;;2083087;28;20182;-54
2022/05/11 03:36:36;;;;;;;4.25;3.55;;;;;;;;;;2082830;28;20172;-54
2022/05/11 03:37:37;;;;;;;3.88;3.58;;;;;;;;;;2083127;28;20248;-52
2022/05/11 03:38:37;;;;;;;4.25;3.25;;;;;;;;;;2082986;28;20264;-56
2022/05/11 03:39:38;;;;;;;3.38;3.10;;;;;;;;;;2082864;28;20544;-51
2022/05/11 03:40:38;;;;;;;4.50;3.53;;;;;;;;;;2083179;28;20176;-55
2022/05/11 03:41:39;;;;;;;4.45;3.38;;;;;;;;;;2083015;28;20668;-55
2022/05/11 03:42:40;;;;;;;4.05;3.20;;;;;;;;;;2083011;28;20172;-52
2022/05/11 03:43:41;;;;;;;5.97;3.78;;;;;;;;;;2082755;28;20192;-53
2022/05/11 03:44:41;;;;;;;3.25;3.05;;;;;;;;;;2073749;28;20161;-54
2022/05/11 03:45:42;;;;;;;3.78;3.58;;;;;;;;;;2074310;28;20708;-55
2022/05/11 03:46:42;;;;;;;3.00;2.80;;;;;;;;;;2082960;28;20736;-54
2022/05/11 03:47:45;;;;;;;3.90;2.95;;;;;;;;;;2082825;28;20188;-53
2022/05/11 03:48:45;;;;;;;3.80;3.50;;;;;;;;;;2083059;28;20652;-53
2022/05/11 03:49:45;;;;;;;4.00;3.33;;;;;;;;;;2082816;28;20169;-51
2022/05/11 03:50:46;;;;;;;4.13;3.65;;;;;;;;;;2082862;28;20176;-54
2022/05/11 03:51:47;;;;;;;4.13;3.60;;;;;;;;;;2082576;28;20185;-54
2022/05/11 03:52:47;;;;;;;3.28;3.08;;;;;;;;;;2073683;28;20208;-53
2022/05/11 03:53:47;;;;;;;3.75;3.45;;;;;;;;;;2074023;28;20704;-53
2022/05/11 03:54:47;;;;;;;3.58;3.28;;;;;;;;;;2082280;28;20188;-53
2022/05/11 03:55:48;;;;;;;5.35;3.47;;;;;;;;;;2082966;28;20637;-52
2022/05/11 03:56:48;;;;;;;3.55;3.35;;;;;;;;;;2082682;28;20168;-52
2022/05/11 03:57:48;;;;;;;4.05;3.40;;;;;;;;;;2083068;28;20172;-51
2022/05/11 03:58:49;;;;;;;4.45;3.10;;;;;;;;;;2082646;28;20167;-52
2022/05/11 03:59:49;;;;;;;3.90;3.60;;;;;;;;;;2082992;28;20172;-51
2022/05/11 04:00:49;;;;;;;3.35;3.15;;;;;;;;;;2082843;28;20663;-54
2022/05/11 04:01:49;;;;;;;3.67;3.20;;;;;;;;;;2082477;28;20219;-51
2022/05/11 04:02:50;;;;;;;6.07;3.30;;;;;;;;;;2083108;28;20645;-52
2022/05/11 04:03:51;;;;;;;3.10;2.90;;;;;;;;;;2082616;28;20165;-51
2022/05/11 04:04:52;;;;;;;3.45;3.15;;;;;;;;;;2082828;28;20207;-51
2022/05/11 04:05:55;;;;;;;3.88;3.17;;;;;;;;;;2084391;28;20624;-53
2022/05/11 04:06:55;;;;;;;3.63;3.42;;;;;;;;;;2082556;28;20215;-53
2022/05/11 04:07:56;;;;;;;3.95;3.58;;;;;;;;;;2082045;28;20235;-55
2022/05/11 04:08:56;;;;;;;4.93;3.72;;;;;;;;;;2082231;28;20172;-55
2022/05/11 04:09:56;;;;;;;3.67;3.38;;;;;;;;;;2082230;28;20176;-54
2022/05/11 04:10:57;;;;;;;6.32;3.67;;;;;;;;;;2082444;28;20168;-54
2022/05/11 04:11:57;;;;;;;3.90;3.60;;;;;;;;;;2082586;28;20253;-54
2022/05/11 04:12:59;;;;;;;4.05;3.50;;;;;;;;;;2082514;28;20236;-54
2022/05/11 04:13:59;;;;;;;3.60;3.30;;;;;;;;;;2082140;28;20172;-53
2022/05/11 04:15:00;;;;;;;4.05;3.38;;;;;;;;;;2082711;28;20172;-51
2022/05/11 04:16:00;;;;;;;3.50;3.25;;;;;;;;;;2074021;28;20189;-52
2022/05/11 04:17:00;;;;;;;7.63;3.75;;;;;;;;;;2073538;28;20227;-54
2022/05/11 04:18:01;;;;;;;3.72;3.28;;;;;;;;;;2082559;28;20176;-56
2022/05/11 04:19:01;;;;;;;5.38;4.00;;;;;;;;;;2082203;28;20200;-53
2022/05/11 04:20:03;;;;;;;4.97;3.42;;;;;;;;;;2081955;28;20656;-50
2022/05/11 04:21:03;;;;;;;4.15;3.75;;;;;;;;;;2082374;28;20184;-52
2022/05/11 04:22:04;;;;;;;3.67;3.38;;;;;;;;;;2083039;28;20171;-51
2022/05/11 04:23:04;;;;;;;4.57;3.58;;;;;;;;;;2083514;28;20172;-56
2022/05/11 04:24:04;;;;;;;3.95;3.38;;;;;;;;;;2083091;28;20210;-55
2022/05/11 04:25:05;;;;;;;4.82;3.40;;;;;;;;;;2074945;28;20200;-54
2022/05/11 04:26:09;;;;;;;3.65;3.20;;;;;;;;;;2075394;28;20168;-54
2022/05/11 04:27:10;;;;;;;3.70;3.50;;;;;;;;;;2074320;28;20653;-60
2022/05/11 04:28:11;;;;;;;3.95;3.65;;;;;;;;;;2074225;28;20255;-53
2022/05/11 04:29:11;;;;;;;5.47;3.60;;;;;;;;;;2082714;28;20211;-54
2022/05/11 04:30:16;;;;;;;4.35;4.05;;;;;;;;;;2082773;28;20164;-57
2022/05/11 04:31:16;;;;;;;3.88;3.50;;;;;;;;;;2078718;28;20211;-54
2022/05/11 04:32:17;;;;;;;4.00;3.70;;;;;;;;;;2082361;28;20168;-56
2022/05/11 04:33:17;;;;;;;4.07;3.78;;;;;;;;;;2083260;28;20299;-54
2022/05/11 04:34:17;;;;;;;4.88;3.70;;;;;;;;;;2072936;28;20223;-54
2022/05/11 04:35:17;;;;;;;6.95;3.78;;;;;;;;;;2073682;28;20173;-53
2022/05/11 04:36:18;;;;;;;4.43;3.35;;;;;;;;;;2083044;28;20171;-51
2022/05/11 04:37:18;;;;;;;4.70;3.50;;;;;;;;;;2083020;28;20503;-59
2022/05/11 04:38:18;;;;;;;4.07;3.78;;;;;;;;;;2082686;28;20164;-55
2022/05/11 04:39:19;;;;;;;5.75;3.60;;;;;;;;;;2083008;28;20176;-53
2022/05/11 04:40:19;;;;;;;3.78;3.28;;;;;;;;;;2073978;28;20161;-53
2022/05/11 04:41:19;;;;;;;4.20;3.47;;;;;;;;;;2074236;28;20547;-57
2022/05/11 04:42:19;;;;;;;4.35;3.92;;;;;;;;;;2070670;28;20169;-53
2022/05/11 04:43:20;;;;;;;4.90;3.83;;;;;;;;;;2066370;28;20182;-54
2022/05/11 04:44:20;;;;;;;3.55;3.28;;;;;;;;;;2074080;28;20263;-53
2022/05/11 04:45:21;;;;;;;5.28;3.60;;;;;;;;;;2084304;28;20165;-53
2022/05/11 04:46:21;;;;;;;4.93;3.65;;;;;;;;;;2084672;28;20187;-55
2022/05/11 04:47:21;;;;;;;5.75;3.47;;;;;;;;;;2075726;28;20287;-52
2022/05/11 04:48:22;;;;;;;6.55;3.80;;;;;;;;;;2073498;28;20201;-53
2022/05/11 04:49:25;;;;;;;3.55;3.13;;;;;;;;;;2082247;28;20172;-55
2022/05/11 04:50:25;;;;;;;4.57;3.55;;;;;;;;;;2075266;28;20248;-51
2022/05/11 04:51:25;;;;;;;5.97;4.20;;;;;;;;;;2079702;28;20192;-52
2022/05/11 04:52:25;;;;;;;3.83;3.40;;;;;;;;;;2083825;28;20172;-55
2022/05/11 04:53:26;;;;;;;7.30;3.80;;;;;;;;;;2083628;28;20196;-53
2022/05/11 04:54:26;;;;;;;8.75;3.50;;;;;;;;;;2084670;28;20172;-52
2022/05/11 04:55:27;;;;;;;3.70;3.40;;;;;;;;;;2084121;28;20175;-55
2022/05/11 04:56:27;;;;;;;4.57;3.47;;;;;;;;;;2084379;28;20222;-53
2022/05/11 04:57:27;;;;;;;4.03;3.47;;;;;;;;;;2084347;28;20246;-55
2022/05/11 04:58:27;;;;;;;4.65;3.60;;;;;;;;;;2084494;28;20176;-55
2022/05/11 04:59:28;;;;;;;4.03;3.72;;;;;;;;;;2083418;28;20196;-52
2022/05/11 05:00:28;;;;;;;4.45;4.05;;;;;;;;;;2077020;28;20176;-53
2022/05/11 05:01:28;;;;;;;4.45;4.05;;;;;;;;;;2083551;28;20207;-55
2022/05/11 05:02:28;;;;;;;4.85;3.90;;;;;;;;;;2082487;28;20172;-53
2022/05/11 05:03:29;;;;;;;3.90;3.60;;;;;;;;;;2082581;28;20172;-56
2022/05/11 05:04:29;;;;;;;5.40;3.88;;;;;;;;;;2082163;28;20164;-55
2022/05/11 05:05:30;;;;;;;4.28;3.90;;;;;;;;;;2082329;28;20255;-54
2022/05/11 05:06:34;;;;;;;5.28;3.63;;;;;;;;;;2082422;28;20633;-55
2022/05/11 05:07:34;;;;;;;3.83;3.35;;;;;;;;;;2082517;28;20679;-57
2022/05/11 05:08:34;;;;;;;4.53;3.83;;;;;;;;;;2082495;28;20212;-54
2022/05/11 05:09:35;;;;;;;4.43;3.78;;;;;;;;;;2080063;28;20168;-56
2022/05/11 05:10:36;;;;;;;3.72;3.42;;;;;;;;;;2072711;28;20256;-59
2022/05/11 05:11:37;;;;;;;6.65;3.72;;;;;;;;;;2071751;28;20238;-56
2022/05/11 05:12:38;;;;;;;4.85;3.83;;;;;;;;;;2083887;28;20243;-55
2022/05/11 05:13:38;;;;;;;5.47;3.85;;;;;;;;;;2082290;28;20171;-55
2022/05/11 05:14:38;;;;;;;6.75;3.72;;;;;;;;;;2084527;28;20588;-53
2022/05/11 05:15:40;;;;;;;4.32;3.90;;;;;;;;;;2079871;28;20222;-53
2022/05/11 05:16:41;;;;;;;6.45;3.80;;;;;;;;;;2074948;28;20168;-50
2022/05/11 05:17:41;;;;;;;4.00;3.70;;;;;;;;;;2082235;28;20222;-55
2022/05/11 05:18:41;;;;;;;3.65;3.45;;;;;;;;;;2083336;28;20184;-52
2022/05/11 05:19:43;;;;;;;3.90;3.45;;;;;;;;;;2075353;28;20165;-51
2022/05/11 05:20:43;;;;;;;4.85;3.88;;;;;;;;;;2081584;28;20180;-55
2022/05/11 05:21:43;;;;;;;4.40;3.45;;;;;;;;;;2085430;22;20231;-57
2022/05/11 05:22:44;;;;;;;3.60;3.30;;;;;;;;;;2071781;28;20661;-57
2022/05/11 05:23:45;;;;;;;5.72;4.57;;;;;;;;;;2081487;28;20675;-59
2022/05/11 05:24:45;;;;;;;5.07;3.50;;;;;;;;;;2090200;28;20167;-58
2022/05/11 05:25:46;;;;;;;4.43;3.72;;;;;;;;;;2091527;28;20175;-59
2022/05/11 05:26:46;;;;;;;3.90;3.45;;;;;;;;;;2089836;28;20172;-60
2022/05/11 05:27:48;;;;;;;4.00;3.60;;;;;;;;;;2091081;28;20525;-52
2022/05/11 05:31:29;;;;;;;5.97;3.90;;;;;;;;;;2095092;28;20155;-59
2022/05/11 05:32:37;;;;;;;3.83;3.53;;;;;;;;;;2083007;28;20160;-60
2022/05/11 05:33:41;;;;;;;3.95;3.25;;;;;;;;;;2073775;28;20255;-60
2022/05/11 05:34:45;;;;;;;3.60;3.25;;;;;;;;;;2073564;28;20224;-60
2022/05/11 05:35:45;;;;;;;4.32;3.78;;;;;;;;;;2074256;28;20322;-58
2022/05/11 05:36:45;;;;;;;6.57;3.67;;;;;;;;;;2074070;28;20161;-58
2022/05/11 05:37:45;;;;;;;3.85;3.33;;;;;;;;;;2073177;28;20208;-59
2022/05/11 05:38:46;;;;;;;3.88;3.60;;;;;;;;;;2075280;28;20168;-58
2022/05/11 05:39:46;;;;;;;4.72;3.50;;;;;;;;;;2082096;28;20179;-56
2022/05/11 05:40:46;;;;;;;4.85;3.63;;;;;;;;;;2082157;28;20616;-59
2022/05/11 05:41:46;;;;;;;3.40;3.10;;;;;;;;;;2082233;28;20180;-60
2022/05/11 05:42:47;;;;;;;3.72;3.42;;;;;;;;;;2082279;28;20246;-60
2022/05/11 05:43:48;;;;;;;4.93;3.80;;;;;;;;;;2082365;28;20270;-57
2022/05/11 05:44:48;;;;;;;4.95;3.60;;;;;;;;;;2080702;28;20223;-61
2022/05/11 05:45:49;;;;;;;4.13;3.83;;;;;;;;;;2081902;28;20195;-53
2022/05/11 05:46:50;;;;;;;3.60;3.30;;;;;;;;;;2082432;28;20226;-53
2022/05/11 05:47:51;;;;;;;4.50;3.05;;;;;;;;;;2082253;28;20222;-52
2022/05/11 05:48:51;;;;;;;4.82;3.63;;;;;;;;;;2081988;28;20594;-54
2022/05/11 05:49:52;;;;;;;3.78;3.50;;;;;;;;;;2081805;28;20176;-55
2022/05/11 05:50:52;;;;;;;4.30;3.63;;;;;;;;;;2081956;28;20169;-51
2022/05/11 05:51:52;;;;;;;4.40;4.00;;;;;;;;;;2082136;28;20645;-55
2022/05/11 05:52:54;;;;;;;5.07;3.50;;;;;;;;;;2077820;28;20180;-55
2022/05/11 05:53:55;;;;;;;3.90;3.47;;;;;;;;;;2078280;28;20259;-49
2022/05/11 05:54:56;;;;;;;6.80;3.95;;;;;;;;;;2081680;28;20183;-52
2022/05/11 05:55:56;;;;;;;4.35;3.45;;;;;;;;;;2080307;28;20222;-51
2022/05/11 05:56:57;;;;;;;5.75;3.70;;;;;;;;;;2075916;28;20188;-55
2022/05/11 05:57:59;;;;;;;4.25;3.83;;;;;;;;;;2081228;28;20636;-52
2022/05/11 05:59:05;;;;;;;4.13;3.55;;;;;;;;;;2081095;28;20656;-55
2022/05/11 06:00:06;;;;;;;4.68;3.22;;;;;;;;;;2081576;28;20533;-53
2022/05/11 06:01:09;;;;;;;4.45;3.55;;;;;;;;;;2081950;28;20195;-56
2022/05/11 06:02:13;;;;;;;6.72;4.30;;;;;;;;;;2082488;28;20274;-52
2022/05/11 06:03:18;;;;;;;4.28;3.25;;;;;;;;;;2080961;28;20168;-53
2022/05/11 06:04:18;;;;;;;4.00;3.60;;;;;;;;;;2080797;28;20148;-54
2022/05/11 06:05:19;;;;;;;3.75;3.22;;;;;;;;;;2081513;28;20633;-53
2022/05/11 06:06:21;;;;;;;3.90;3.60;;;;;;;;;;2088877;28;20171;-53
2022/05/11 06:07:21;;;;;;;5.13;3.10;;;;;;;;;;2089902;28;20172;-51
2022/05/11 06:08:23;;;;;;;4.35;3.83;;;;;;;;;;2089037;28;20699;-56
2022/05/11 06:09:23;;;;;;;6.18;3.17;;;;;;;;;;2089071;28;20647;-54
2022/05/11 06:10:25;;;;;;;4.35;3.30;;;;;;;;;;2089423;28;20167;-56
2022/05/11 06:11:25;;;;;;;5.30;3.42;;;;;;;;;;2089096;28;20644;-52
2022/05/11 06:12:25;;;;;;;4.45;4.05;;;;;;;;;;2089917;28;20203;-53
2022/05/11 06:13:26;;;;;;;3.88;3.50;;;;;;;;;;2089908;28;20164;-52
2022/05/11 06:14:26;;;;;;;7.88;3.42;;;;;;;;;;2089462;28;20222;-49
2022/05/11 06:15:26;;;;;;;3.45;3.22;;;;;;;;;;2090011;28;20247;-56
2022/05/11 06:16:26;;;;;;;6.63;3.70;;;;;;;;;;2089733;28;20170;-54